TimeEST,TemperatureF,Dew PointF,Humidity,Sea Level PressureIn,VisibilityMPH,Wind Direction,Wind SpeedMPH,Gust SpeedMPH,PrecipitationIn,Events,Conditions,WindDirDegrees,DateUTC
4:55 PM,45.5,37.2,73,29.96,10.0,North,-9999.0,-,N/A,,Unknown,0,2012-11-06 21:55:00
5:15 PM,43.7,37.4,78,29.96,10.0,North,-9999.0,-,N/A,,Clear,0,2012-11-06 22:15:00
5:35 PM,42.3,36.7,81,29.96,10.0,North,-9999.0,-,N/A,,Scattered Clouds,0,2012-11-06 22:35:00
5:55 PM,41.5,36.9,83,29.97,10.0,North,-9999.0,-,N/A,,Mostly Cloudy,0,2012-11-06 22:55:00
6:15 PM,41.5,37.4,85,29.98,10.0,North,-9999.0,-,N/A,,Overcast,0,2012-11-06 23:15:00
6:35 PM,41.5,37.0,84,29.98,10.0,North,-9999.0,-,N/A,,Mostly Cloudy,0,2012-11-06 23:35:00
6:55 PM,43.2,35.6,75,29.98,10.0,North,-9999.0,-,N/A,,Scattered Clouds,0,2012-11-06 23:55:00
7:15 PM,43.9,34.0,68,29.98,10.0,North,-9999.0,-,N/A,,Clear,0,2012-11-07 00:15:00
7:35 PM,42.3,34.5,74,29.98,10.0,North,-9999.0,-,N/A,,Clear,0,2012-11-07 00:35:00
7:55 PM,39.4,34.9,84,29.99,10.0,North,-9999.0,-,N/A,,Scattered Clouds,0,2012-11-07 00:55:00
8:15 PM,38.3,34.5,86,29.99,10.0,North,-9999.0,-,N/A,,Mostly Cloudy,0,2012-11-07 01:15:00
8:35 PM,38.3,34.2,85,29.98,10.0,North,-9999.0,-,N/A,,Scattered Clouds,0,2012-11-07 01:35:00
8:55 PM,37.2,33.8,87,29.98,10.0,North,-9999.0,-,N/A,,Clear,0,2012-11-07 01:55:00
9:15 PM,36.5,34.0,91,29.98,10.0,North,-9999.0,-,N/A,,Mostly Cloudy,0,2012-11-07 02:15:00
9:55 PM,34.7,32.9,93,29.98,10.0,North,-9999.0,-,N/A,,Clear,0,2012-11-07 02:55:00
10:15 PM,33.8,32.4,94,29.98,10.0,North,-9999.0,-,N/A,,Scattered Clouds,0,2012-11-07 03:15:00
10:35 PM,33.3,32.4,96,29.98,10.0,North,-9999.0,-,N/A,,Scattered Clouds,0,2012-11-07 03:35:00
10:55 PM,33.3,32.2,96,29.96,10.0,North,-9999.0,-,N/A,,Mostly Cloudy,0,2012-11-07 03:55:00
11:15 PM,32.9,32.2,97,29.96,10.0,North,-9999.0,-,N/A,,Scattered Clouds,0,2012-11-07 04:15:00
11:35 PM,32.4,32.0,99,29.95,10.0,North,-9999.0,-,N/A,,Clear,0,2012-11-07 04:35:00
11:55 PM,32.0,32.0,100,29.95,10.0,North,-9999.0,-,N/A,,Clear,0,2012-11-07 04:55:00